• Join FlightAware (Why Join?)
  • Login
  • US Flag 
09:45PM EDT


 

Airport Tracker/Info


-or-


 

Live Flight TrackerFlight Track Log ✈ N654DL ✈ 28-Apr-2013 ✈ KATL - KSAN

Flight Track Log - Related Links

Times and Time Zones

All times are in EDT time to prevent confusion due to time zone crossing. See the N654DL flight status page for this flight to view local times or setup timezone preferences in your user account.

Time Position Orientation Groundspeed Altitude Reporting Facility
EDT Latitude Longitude Course Direction KTS MPH feet Rate Location/Type
11:31AM 33.6519 -84.3633 246° West 460 529 2,700  Level Atlanta Center
11:32AM 33.6875 -84.2811 63° Northeast 376 433 4,200 2,100 Climbing Atlanta Center
11:33AM 33.7647 -84.2761 North 253 291 7,000 2,760 Climbing Atlanta Center
11:34AM 33.8000 -84.5234 270° West  Level FlightAware Approximate
11:34AM 33.8147 -84.3364 315° West 285 328 9,800  Level Atlanta Center
11:35AM 33.7532 -84.6490 234° Southwest  Level FlightAware Approximate
11:35AM 33.8125 -84.4289 268° West 266 306 11,300  Level Atlanta Center
11:36AM 33.6825 -84.7640 234° Southwest  Level FlightAware Approximate
11:36AM 33.8100 -84.5414 268° West 318 366 13,500  Level Atlanta Center
11:37AM 33.6236 -84.8873 246° West  Level FlightAware Approximate
11:37AM 33.7781 -84.6386 248° West 323 372 16,000  Level Atlanta Center
11:38AM 33.7567 -84.7408 256° West 318 366 17,800 1,500 Climbing Atlanta Center
11:39AM 33.7519 -84.8483 267° West 345 397 19,100 1,500 Climbing Atlanta Center
11:40AM 33.7511 -84.9658 270° West 359 413 20,800 1,200 Climbing Atlanta Center
11:41AM 33.7458 -85.0881 267° West 365 420 21,600 900 Climbing Atlanta Center
11:42AM 33.7425 -85.2306 268° West 378 435 22,700 1,320 Climbing Atlanta Center
11:43AM 33.7369 -85.3653 267° West 398 458 24,300 1,500 Climbing Atlanta Center
11:44AM 33.7333 -85.5025 268° West 403 464 25,800 1,380 Climbing Atlanta Center
11:45AM 33.7297 -85.6375 268° West 403 464 27,100 1,200 Climbing Atlanta Center
11:46AM 33.7278 -85.7747 269° West 403 464 28,200 1,260 Climbing Atlanta Center
11:47AM 33.7175 -85.9094 265° West 403 464 29,700 1,800 Climbing Atlanta Center
11:48AM 33.7111 -86.0392 267° West 403 464 31,900 1,740 Climbing Atlanta Center
11:49AM 33.7069 -86.1689 268° West 398 458 33,200 1,140 Climbing Atlanta Center
11:50AM 33.7028 -86.2936 268° West 393 452 34,200 900 Climbing Atlanta Center
11:51AM 33.6983 -86.4183 268° West 381 438 35,000 720 Climbing Atlanta Center
11:52AM 33.6917 -86.5456 266° West 381 438 35,700 480 Climbing Atlanta Center
11:53AM 33.6681 -86.6647 257° West 381 438 36,000 120 Climbing Atlanta Center
11:54AM 33.6364 -86.7858 253° West 381 438 36,000  Level Atlanta Center
11:55AM 33.6022 -86.9069 251° West 381 438 36,000  Level Atlanta Center
11:56AM 33.5700 -87.0281 252° West 381 438 36,000  Level Atlanta Center
11:57AM 33.5358 -87.1539 252° West 381 438 36,000  Level Atlanta Center
11:58AM 33.5056 -87.2750 253° West 381 438 36,000  Level Atlanta Center
11:59AM 33.4753 -87.3811 251° West 383 441 36,000  Level Memphis Center
12:00PM 33.4300 -87.4972 245° Southwest 376 433 36,000  Level Memphis Center
12:01PM 33.3828 -87.6158 245° Southwest 382 440 36,000  Level Memphis Center
12:02PM 33.3372 -87.7339 245° Southwest 387 445 36,000  Level Memphis Center
12:03PM 33.2936 -87.8519 246° West 387 445 36,000  Level Memphis Center
12:04PM 33.2586 -87.9747 251° West 387 445 36,000  Level Memphis Center
12:05PM 33.2256 -88.1000 253° West 392 451 36,000  Level Memphis Center
12:06PM 33.1983 -88.2197 255° West 387 445 36,000  Level Memphis Center
12:07PM 33.1733 -88.3444 257° West 382 440 36,000  Level Memphis Center
12:08PM 33.1522 -88.4689 259° West 382 440 36,100  Climbing Memphis Center
12:09PM 33.1333 -88.5983 260° West 387 445 36,000 -60 Descending Memphis Center
12:10PM 33.1164 -88.7278 261° West 397 457 36,000  Level Memphis Center
12:11PM 33.1033 -88.8544 263° West 397 457 36,000  Level Memphis Center
12:12PM 33.0922 -88.9811 264° West 392 451 36,000  Level Memphis Center
12:13PM 33.0808 -89.0978 263° West 392 451 36,000  Level Memphis Center
12:14PM 33.0781 -89.2242 269° West 392 451 36,000  Level Memphis Center
12:15PM 33.0833 -89.3531 273° West 386 444 36,000  Level Memphis Center
12:16PM 33.0864 -89.4769 272° West 386 444 36,000  Level Memphis Center
12:17PM 33.0683 -89.6036 260° West 381 438 36,000  Level Memphis Center
12:18PM 33.0733 -89.7300 273° West 386 444 36,000  Level Memphis Center
12:19PM 33.0842 -89.8614 276° West 386 444 36,000  Level Memphis Center
12:20PM 33.0911 -90.0028 273° West 391 450 36,000  Level Memphis Center
12:21PM 33.0975 -90.1267 274° West 385 443 36,000  Level Memphis Center
12:22PM 33.1061 -90.2531 275° West 385 443 36,000  Level Memphis Center
12:23PM 33.1144 -90.3794 275° West 385 443 36,000  Level Memphis Center
12:24PM 33.1228 -90.5061 275° West 385 443 36,000  Level Memphis Center
12:25PM 33.1308 -90.6325 274° West 385 443 36,000  Level Memphis Center
12:26PM 33.1389 -90.7592 274° West 385 443 36,000  Level Memphis Center
12:27PM 33.1467 -90.8858 274° West 385 443 36,000  Level Memphis Center
12:28PM 33.1544 -91.0122 274° West 385 443 36,000  Level Memphis Center
12:29PM 33.1642 -91.1439 275° West 385 443 36,000  Level Memphis Center
12:31PM 33.1831 -91.4197 275° West 393 452 36,000  Level Fort Worth Center
12:32PM 33.1978 -91.5528 278° West 399 459 36,000  Level Fort Worth Center
12:33PM 33.2058 -91.6839 274° West 405 466 36,000  Level Fort Worth Center
12:34PM 33.2139 -91.8172 274° West 405 466 36,000  Level Fort Worth Center
12:35PM 33.2178 -91.9536 272° West 405 466 36,000  Level Fort Worth Center
12:36PM 33.2278 -92.0894 275° West 410 472 36,000  Level Fort Worth Center
12:37PM 33.2336 -92.2258 273° West 410 472 36,000  Level Fort Worth Center
12:38PM 33.2433 -92.3617 275° West 416 479 36,000  Level Fort Worth Center
12:39PM 33.2489 -92.5006 273° West 421 484 36,000  Level Fort Worth Center
12:40PM 33.2542 -92.6369 273° West 421 484 36,000  Level Fort Worth Center
12:41PM 33.2675 -92.7753 277° West 421 484 36,000  Level Fort Worth Center
12:42PM 33.2914 -92.9131 282° West 421 484 36,000  Level Fort Worth Center
12:43PM 33.3192 -93.0508 284° West 426 490 36,000  Level Fort Worth Center
12:44PM 33.3469 -93.1886 284° West 426 490 36,000  Level Fort Worth Center
12:45PM 33.3722 -93.3244 283° West 426 490 36,000  Level Fort Worth Center
12:46PM 33.3997 -93.4622 283° West 426 490 36,000  Level Fort Worth Center
12:47PM 33.4247 -93.6006 282° West 426 490 36,000  Level Fort Worth Center
12:48PM 33.4539 -93.7336 285° West 426 490 36,000  Level Fort Worth Center
12:49PM 33.4808 -93.8769 283° West 432 497 36,000  Level Fort Worth Center
12:50PM 33.5078 -94.0206 283° West 438 504 36,000  Level Fort Worth Center
12:51PM 33.5281 -94.1617 280° West 438 504 36,000  Level Fort Worth Center
12:52PM 33.5442 -94.3031 278° West 438 504 36,000  Level Fort Worth Center
12:53PM 33.5603 -94.4447 278° West 438 504 36,000  Level Fort Worth Center
12:54PM 33.5761 -94.5864 278° West 438 504 36,000  Level Fort Worth Center
12:55PM 33.5917 -94.7278 278° West 438 504 36,000  Level Fort Worth Center
12:56PM 33.6072 -94.8694 278° West 438 504 36,000  Level Fort Worth Center
12:57PM 33.6244 -95.0136 278° West 438 504 36,000  Level Fort Worth Center
12:58PM 33.6417 -95.1556 278° West 438 504 36,000  Level Fort Worth Center
12:59PM 33.6631 -95.2972 280° West 443 510 36,000  Level Fort Worth Center
01:00PM 33.6717 -95.4417 274° West 443 510 36,000  Level Fort Worth Center
01:01PM 33.6883 -95.5836 278° West 443 510 36,000  Level Fort Worth Center
01:02PM 33.7089 -95.7131 281° West 443 510 36,000  Level Fort Worth Center
01:03PM 33.7214 -95.8525 276° West 443 510 36,000  Level Fort Worth Center
01:04PM 33.7375 -95.9997 278° West 443 510 36,000  Level Fort Worth Center
01:05PM 33.7536 -96.1419 278° West 438 504 36,000  Level Fort Worth Center
01:06PM 33.7697 -96.2892 278° West 444 511 36,000  Level Fort Worth Center
01:07PM 33.7856 -96.4464 277° West 444 511 36,000  Level Fort Worth Center
01:08PM 33.8014 -96.5911 278° West 444 511 36,000  Level Fort Worth Center
01:09PM 33.8147 -96.7358 276° West 444 511 36,000  Level Fort Worth Center
01:10PM 33.8319 -96.8808 278° West 444 511 36,000  Level Fort Worth Center
01:11PM 33.8450 -97.0208 276° West 438 504 36,000  Level Fort Worth Center
01:12PM 33.8600 -97.1683 277° West 438 504 36,000  Level Fort Worth Center
01:13PM 33.8728 -97.3083 276° West 438 504 36,000  Level Fort Worth Center
01:14PM 33.8875 -97.4536 277° West 438 504 36,000  Level Fort Worth Center
01:15PM 33.8997 -97.5961 276° West 445 512 36,000  Level Fort Worth Center
01:16PM 33.9142 -97.7439 277° West 445 512 36,000  Level Fort Worth Center
01:17PM 33.9261 -97.8867 276° West 440 506 36,000  Level Fort Worth Center
01:18PM 33.9403 -98.0294 277° West 440 506 36,000  Level Fort Worth Center
01:19PM 33.9519 -98.1597 276° West 440 506 36,000  Level Fort Worth Center
01:20PM 33.9614 -98.3075 274° West 447 514 36,000  Level Fort Worth Center
01:21PM 33.9750 -98.4503 277° West 439 505 36,000  Level Fort Worth Center
01:22PM 33.9883 -98.5908 277° West 439 505 36,000  Level Fort Worth Center
01:23PM 34.0078 -98.7314 280° West 439 505 36,000  Level Fort Worth Center
01:24PM 34.0289 -98.8897 279° West 432 497 36,000  Level Fort Worth Center
01:25PM 34.0481 -99.0303 279° West 432 497 36,000  Level Fort Worth Center
01:26PM 34.0669 -99.1786 279° West 436 502 36,000  Level Fort Worth Center
01:27PM 34.0858 -99.3194 279° West 436 502 36,000  Level Fort Worth Center
01:28PM 34.1064 -99.4653 280° West 436 502 36,000  Level Fort Worth Center
01:29PM 34.1247 -99.6086 279° West 442 509 36,000  Level Fort Worth Center
01:30PM 34.1431 -99.7522 279° West 442 509 36,000  Level Fort Worth Center
01:31PM 34.1611 -99.8958 279° West 447 514 36,000  Level Fort Worth Center
01:32PM 34.1789 -100.0444 278° West 447 514 36,000  Level Fort Worth Center
01:33PM 34.1969 -100.1856 279° West 447 514 36,000  Level Fort Worth Center
01:34PM 34.2144 -100.3319 278° West 447 514 36,000  Level Fort Worth Center
01:35PM 34.2339 -100.4731 280° West 442 509 36,000  Level Fort Worth Center
01:36PM 34.2511 -100.6169 278° West 437 503 36,000  Level Fort Worth Center
01:37PM 34.2661 -100.7633 277° West 437 503 36,000  Level Fort Worth Center
01:38PM 34.2853 -100.9047 279° West 437 503 36,000  Level Fort Worth Center
01:39PM 34.3036 -101.0614 278° West 443 510 36,000  Level Fort Worth Center
01:40PM 34.3183 -101.1978 277° West 441 507 36,000  Level Fort Worth Center
01:41PM 34.3347 -101.3444 278° West 436 502 36,000  Level Fort Worth Center
01:42PM 34.3494 -101.4708 278° West 441 507 36,000  Level Fort Worth Center
01:43PM 34.3672 -101.6325 278° West 441 507 36,000  Level Fort Worth Center
01:44PM 34.3856 -101.8111 277° West 436 502 36,000  Level Albuquerque Center
01:45PM 34.4017 -101.9569 278° West 436 502 36,000  Level Albuquerque Center
01:47PM 34.4183 -102.1044 278° West 438 504 36,000  Level Albuquerque Center
01:48PM 34.4331 -102.2506 277° West 437 503 36,000  Level Albuquerque Center
01:49PM 34.4492 -102.3972 278° West 438 504 36,000  Level Albuquerque Center
01:50PM 34.4647 -102.5450 277° West 441 507 36,000  Level Albuquerque Center
01:51PM 34.4839 -102.7233 277° West 443 510 36,000  Level Albuquerque Center
01:52PM 34.4944 -102.8733 275° West 442 509 36,000  Level Albuquerque Center
01:53PM 34.4892 -103.0253 268° West 445 512 36,000  Level Albuquerque Center
01:54PM 34.4839 -103.1783 268° West 449 517 36,000  Level Albuquerque Center
01:55PM 34.4778 -103.3303 267° West 448 516 36,000  Level Albuquerque Center
01:56PM 34.4728 -103.4839 268° West 450 518 36,000  Level Albuquerque Center
01:57PM 34.4667 -103.6369 267° West 451 519 36,000  Level Albuquerque Center
01:58PM 34.4608 -103.7900 267° West 451 519 36,000  Level Albuquerque Center
01:59PM 34.4536 -103.9433 267° West 451 519 36,000  Level Albuquerque Center
02:00PM 34.4458 -104.1236 267° West 453 521 36,000  Level Albuquerque Center
02:01PM 34.4394 -104.2769 267° West 451 519 36,000  Level Albuquerque Center
02:02PM 34.4317 -104.4308 267° West 451 519 36,000  Level Albuquerque Center
02:03PM 34.4247 -104.5858 267° West 454 522 36,000  Level Albuquerque Center
02:04PM 34.4175 -104.7378 267° West 452 520 36,000  Level Albuquerque Center
02:05PM 34.4097 -104.8928 267° West 452 520 36,000  Level Albuquerque Center
02:06PM 34.4017 -105.0472 266° West 454 522 36,000  Level Albuquerque Center
02:07PM 34.3931 -105.2031 266° West 457 526 36,000  Level Albuquerque Center
02:08PM 34.3844 -105.3844 267° West 458 527 36,000  Level Albuquerque Center
02:09PM 34.3756 -105.5403 266° West 458 527 36,000  Level Albuquerque Center
02:10PM 34.3667 -105.6956 266° West 458 527 36,000  Level Albuquerque Center
02:11PM 34.3622 -105.8503 268° West 457 526 36,000  Level Albuquerque Center
02:12PM 34.3614 -106.0075 270° West 459 528 36,000  Level Albuquerque Center
02:13PM 34.3569 -106.1622 268° West 459 528 36,000  Level Albuquerque Center
02:14PM 34.3517 -106.3208 268° West 466 536 36,000  Level Albuquerque Center
02:15PM 34.3467 -106.4767 268° West 464 534 36,000  Level Albuquerque Center
02:17PM 34.3442 -106.6292 269° West 456 525 36,000  Level Albuquerque Center
02:18PM 34.3367 -106.8169 267° West 461 531 36,000  Level Albuquerque Center
02:19PM 34.3150 -106.9767 261° West 473 544 36,000  Level Albuquerque Center
02:20PM 34.2897 -107.1336 259° West 475 547 36,000  Level Albuquerque Center
02:21PM 34.2661 -107.2894 260° West 475 547 36,000  Level Albuquerque Center
02:22PM 34.2414 -107.4378 259° West 466 536 36,000  Level Albuquerque Center
02:23PM 34.2178 -107.5897 259° West 465 535 36,000  Level Albuquerque Center
02:24PM 34.1881 -107.7728 259° West 465 535 36,000  Level Albuquerque Center
02:25PM 34.1628 -107.9244 259° West 465 535 36,000  Level Albuquerque Center
02:26PM 34.1381 -108.0758 259° West 462 532 36,000  Level Albuquerque Center
02:27PM 34.1144 -108.2231 259° West 460 529 36,000  Level Albuquerque Center
02:28PM 34.0914 -108.3750 260° West 465 535 36,000  Level Albuquerque Center
02:29PM 34.0606 -108.5511 258° West 457 526 36,000  Level Albuquerque Center
02:30PM 34.0356 -108.7014 259° West 460 529 36,000  Level Albuquerque Center
02:31PM 34.0117 -108.8483 259° West 457 526 36,000  Level Albuquerque Center
02:32PM 33.9858 -108.9953 258° West 455 524 36,000  Level Albuquerque Center
02:33PM 33.9547 -109.1714 258° West 454 522 36,000  Level Albuquerque Center
02:34PM 33.9303 -109.3178 259° West 454 522 36,000  Level Albuquerque Center
02:35PM 33.9042 -109.4647 258° West 454 522 36,000  Level Albuquerque Center
02:36PM 33.8775 -109.6133 258° West 457 526 36,000  Level Albuquerque Center
02:37PM 33.8517 -109.7592 258° West 455 524 36,000  Level Albuquerque Center
02:38PM 33.8200 -109.9367 258° West 456 525 36,000  Level Albuquerque Center
02:39PM 33.7936 -110.0828 258° West 455 524 36,000  Level Albuquerque Center
02:40PM 33.7658 -110.2319 257° West 458 527 36,000  Level Albuquerque Center
02:41PM 33.7375 -110.3789 257° West 458 527 36,000  Level Albuquerque Center
02:42PM 33.7111 -110.5306 258° West 456 525 36,000  Level Albuquerque Center
02:43PM 33.6822 -110.6789 257° West 456 525 36,000  Level Albuquerque Center
02:44PM 33.6497 -110.8561 258° West 454 522 36,000  Level Albuquerque Center
02:45PM 33.6219 -111.0033 257° West 452 520 36,000  Level Albuquerque Center
02:46PM 33.5947 -111.1511 258° West 453 521 36,000  Level Albuquerque Center
02:48PM 33.5661 -111.2983 257° West 451 519 36,000  Level Albuquerque Center
02:49PM 33.5372 -111.4447 257° West 450 518 36,000  Level Albuquerque Center
02:50PM 33.5083 -111.5908 257° West 448 516 36,000  Level Albuquerque Center
02:51PM 33.4797 -111.7383 257° West 450 518 36,000  Level Albuquerque Center
02:52PM 33.4478 -111.9147 258° West 450 518 36,000  Level Albuquerque Center
02:53PM 33.4222 -112.0619 258° West 450 518 36,000  Level Albuquerque Center
02:54PM 33.3950 -112.2078 257° West 449 517 36,000  Level Albuquerque Center
02:55PM 33.3681 -112.3550 258° West 451 519 36,000  Level Albuquerque Center
02:56PM 33.3403 -112.5017 257° West 452 520 36,000  Level Albuquerque Center
02:57PM 33.3133 -112.6547 258° West 450 518 36,000  Level Albuquerque Center
02:58PM 33.2856 -112.8006 257° West 451 519 36,000  Level Albuquerque Center
02:59PM 33.2533 -112.9756 258° West 452 520 36,000 -300 Level Albuquerque Center
03:00PM 33.2261 -113.1203 257° West 451 519 35,500 -900 Descending Albuquerque Center
03:01PM 33.1983 -113.2636 257° West 448 516 34,200 -780 Descending Albuquerque Center
03:02PM 33.1706 -113.4122 257° West 457 526 34,000 -120 Descending Albuquerque Center
03:03PM 33.1417 -113.5606 257° West 462 532 34,000  Level Albuquerque Center
03:04PM 33.1133 -113.7086 257° West 461 531 34,000  Level Albuquerque Center
03:05PM 33.0789 -113.8833 257° West 457 526 34,000  Level Albuquerque Center
03:06PM 33.0578 -114.0286 260° West 455 524 34,000  Level Albuquerque Center
03:07PM 33.0425 -114.1733 263° West 451 519 34,000  Level Albuquerque Center
03:08PM 33.0258 -114.3172 262° West 446 513 34,000  Level Albuquerque Center
03:09PM 33.0153 -114.4139 263° West 447 514 34,000  Level Los Angeles Center
03:10PM 32.9978 -114.5603 262° West 448 516 34,000  Level Los Angeles Center
03:11PM 32.9778 -114.7072 261° West 452 520 34,000  Level Los Angeles Center
03:12PM 32.9594 -114.8558 262° West 455 524 34,000 -300 Level Los Angeles Center
03:13PM 32.9400 -115.0042 261° West 455 524 33,400 -1,020 Descending Los Angeles Center
03:14PM 32.9164 -115.1814 261° West 453 521 32,000 -1,800 Descending Los Angeles Center
03:15PM 32.8983 -115.3283 262° West 449 517 29,700 -2,880 Descending Los Angeles Center
03:16PM 32.8769 -115.4803 261° West 467 537 26,000 -2,760 Descending Los Angeles Center
03:17PM 32.8569 -115.6297 261° West 461 531 24,000 -2,280 Descending Los Angeles Center
03:18PM 32.8367 -115.7792 261° West 459 528 21,400 -2,640 Descending Los Angeles Center
03:19PM 32.8172 -115.9239 261° West 448 516 18,600 -2,520 Descending Los Angeles Center
03:20PM 32.7942 -116.0903 261° West 428 493 16,300 -2,160 Descending Los Angeles Center
03:21PM 32.7772 -116.2144 261° West 385 443 14,200 -2,340 Descending Los Angeles Center
03:22PM 32.7600 -116.3300 260° West 358 412 11,500 -1,740 Descending Los Angeles Center
03:23PM 32.7428 -116.4450 260° West 348 400 10,700 -900 Descending Los Angeles Center
03:24PM 32.7281 -116.5539 261° West 336 387 9,700 -1,260 Descending Los Angeles Center
03:25PM 32.7139 -116.6483 260° West 301 346 8,100 -1,320 Descending Los Angeles Center
03:26PM 32.7092 -116.7400 267° West 282 325 7,000 -1,020 Descending Los Angeles Center
03:27PM 32.7050 -116.8294 267° West 274 315 6,100 -1,080 Descending Los Angeles Center
03:28PM 32.6833 -116.8833 244° Southwest 256 295 5,400 -1,320 Descending Southern California TRACON
03:29PM 32.6833 -116.9500 270° West 218 251 4,100 -1,320 Descending Southern California TRACON